createdAt,value
2023-01-17T00:01:13.152Z,97473.04
2023-01-17T00:06:35.302Z,97463.95
2023-01-17T00:11:38.817Z,97454.77
2023-01-17T00:16:42.547Z,97447.55
2023-01-17T00:22:04.689Z,97446.20
2023-01-17T00:27:14.448Z,97441.00
2023-01-17T00:32:17.763Z,97434.14
2023-01-17T00:37:21.286Z,97427.96
2023-01-17T00:42:24.900Z,97416.55
2023-01-17T00:47:47.149Z,97407.02
2023-01-17T00:53:09.415Z,97401.92
2023-01-17T00:58:31.762Z,97386.56
2023-01-17T01:03:54.225Z,97374.95
2023-01-17T01:09:16.477Z,97361.83
2023-01-17T01:14:38.423Z,97355.67
2023-01-17T01:20:00.599Z,97346.02
2023-01-17T01:25:23.137Z,97337.98
2023-01-17T01:30:45.399Z,97323.96
2023-01-17T01:35:54.035Z,97310.58
2023-01-17T01:40:57.547Z,97294.82
2023-01-17T01:46:01.647Z,97284.70
2023-01-17T01:51:10.219Z,97276.53
2023-01-17T01:56:15.675Z,97260.18
2023-01-17T02:01:19.812Z,97250.41
2023-01-17T02:06:32.939Z,97243.14
2023-01-17T02:11:40.970Z,97236.20
2023-01-17T02:16:51.849Z,97240.16
2023-01-17T02:22:07.552Z,97241.79
2023-01-17T02:27:25.919Z,97241.84
2023-01-17T02:32:52.167Z,97242.14
2023-01-17T02:38:33.265Z,97240.09
2023-01-17T02:43:37.900Z,97232.72
2023-01-17T02:48:42.368Z,97224.79
2023-01-17T02:53:48.719Z,97229.14
2023-01-17T02:59:10.773Z,97223.61
2023-01-17T03:04:21.560Z,97211.22
2023-01-17T03:09:26.649Z,97197.39
2023-01-17T03:14:33.605Z,97188.33
2023-01-17T03:19:37.016Z,97177.63
2023-01-17T03:24:41.047Z,97169.59
2023-01-17T03:29:44.462Z,97163.55
2023-01-17T03:34:47.977Z,97161.37
2023-01-17T03:39:51.590Z,97162.60
2023-01-17T03:44:55.116Z,97144.71
2023-01-17T03:49:58.732Z,97138.96
2023-01-17T03:55:03.060Z,97147.67
2023-01-17T04:00:07.219Z,97144.75
2023-01-17T04:05:10.707Z,97141.23
2023-01-17T04:10:14.224Z,97131.27
2023-01-17T04:15:18.148Z,97108.11
2023-01-17T04:20:33.859Z,97106.71
2023-01-17T04:25:37.676Z,97116.63
2023-01-17T04:30:41.246Z,97116.13
2023-01-17T04:35:44.701Z,97114.68
2023-01-17T04:40:48.939Z,97124.39
2023-01-17T04:45:59.009Z,97123.70
2023-01-17T04:51:04.423Z,97118.27
2023-01-17T04:56:08.290Z,97117.13
2023-01-17T05:01:11.799Z,97110.14
2023-01-17T05:06:15.935Z,97106.58
2023-01-17T05:11:19.445Z,97093.60
2023-01-17T05:16:22.966Z,97090.55
2023-01-17T05:21:26.681Z,97091.15
2023-01-17T05:26:30.298Z,97096.08
2023-01-17T05:31:33.827Z,97085.70
2023-01-17T05:36:37.334Z,97076.99
2023-01-17T05:41:40.948Z,97083.86
2023-01-17T05:46:44.463Z,97085.11
2023-01-17T05:51:48.184Z,97085.48
2023-01-17T05:56:51.699Z,97084.91
2023-01-17T06:01:55.114Z,97090.40
2023-01-17T06:06:58.731Z,97099.42
2023-01-17T06:12:02.266Z,97102.39
2023-01-17T06:17:05.861Z,97103.04
2023-01-17T06:22:09.585Z,97107.50
2023-01-17T06:27:13.001Z,97105.95
2023-01-17T06:32:16.721Z,97101.96
2023-01-17T06:37:20.133Z,97100.27
2023-01-17T06:42:23.868Z,97108.10
2023-01-17T06:47:27.364Z,97118.00
2023-01-17T06:52:30.987Z,97112.41
2023-01-17T06:57:34.703Z,97120.97
2023-01-17T07:02:38.423Z,97125.39
2023-01-17T07:07:42.042Z,97130.69
2023-01-17T07:12:45.772Z,97124.08
2023-01-17T07:17:49.277Z,97122.23
2023-01-17T07:22:52.796Z,97117.61
2023-01-17T07:27:58.003Z,97122.36
2023-01-17T07:33:04.435Z,97127.20
2023-01-17T07:38:11.659Z,97132.73
2023-01-17T07:43:15.161Z,97135.02
2023-01-17T07:48:20.712Z,97133.08
2023-01-17T07:53:26.243Z,97126.73
2023-01-17T07:58:29.798Z,97122.84
2023-01-17T08:03:36.832Z,97125.02
2023-01-17T08:08:40.422Z,97119.70
2023-01-17T08:13:44.024Z,97117.30
2023-01-17T08:18:47.540Z,97116.16
2023-01-17T08:23:52.594Z,97118.61
2023-01-17T08:29:00.759Z,97126.00
2023-01-17T08:34:04.742Z,97134.56
2023-01-17T08:39:08.160Z,97145.02
2023-01-17T08:44:49.098Z,97137.11
2023-01-17T08:49:52.977Z,97131.71
2023-01-17T08:54:56.692Z,97129.63
2023-01-17T09:00:00.181Z,97124.70
2023-01-17T09:05:04.031Z,97128.65
2023-01-17T09:10:07.962Z,97142.02
2023-01-17T09:15:14.842Z,97157.80
2023-01-17T09:20:18.370Z,97164.23
2023-01-17T09:25:22.602Z,97170.49
2023-01-17T09:30:26.372Z,97164.11
2023-01-17T09:35:30.146Z,97162.25
2023-01-17T09:40:34.577Z,97162.81
2023-01-17T09:45:37.851Z,97165.80
2023-01-17T09:50:53.700Z,97150.63
2023-01-17T09:56:10.008Z,97140.54
2023-01-17T10:01:28.617Z,97137.73
2023-01-17T10:07:18.188Z,97136.04
2023-01-17T10:12:47.903Z,97136.11
2023-01-17T10:18:01.657Z,97133.88
2023-01-17T10:23:29.962Z,97134.55
2023-01-17T10:28:36.029Z,97134.36
2023-01-17T10:34:19.282Z,97140.59
2023-01-17T10:39:26.584Z,97139.88
2023-01-17T10:44:56.820Z,97149.23
2023-01-17T10:50:05.379Z,97147.48
2023-01-17T10:55:34.503Z,97154.06
2023-01-17T11:01:01.180Z,97149.89
2023-01-17T11:06:28.098Z,97156.45
2023-01-17T11:11:33.980Z,97159.73
2023-01-17T11:16:37.481Z,97159.27
2023-01-17T11:21:52.571Z,97147.69
2023-01-17T11:26:57.842Z,97146.62
2023-01-17T11:32:30.215Z,97142.10
2023-01-17T11:37:35.591Z,97139.45
2023-01-17T11:42:39.500Z,97143.63
2023-01-17T11:47:43.016Z,97149.67
2023-01-17T11:52:46.544Z,97149.08
2023-01-17T11:57:51.485Z,97154.50
2023-01-17T12:03:17.025Z,97159.80
2023-01-17T12:08:23.086Z,97155.45
2023-01-17T12:13:59.062Z,97155.02
2023-01-17T12:19:23.260Z,97153.56
2023-01-17T12:24:51.765Z,97153.00
2023-01-17T12:30:12.795Z,97154.20
2023-01-17T12:35:41.741Z,97151.84
2023-01-17T12:40:53.820Z,97159.02
2023-01-17T12:45:58.973Z,97169.36
2023-01-17T12:51:18.567Z,97167.98
2023-01-17T12:56:35.190Z,97167.83
2023-01-17T13:01:43.378Z,97177.64
2023-01-17T13:07:01.068Z,97187.16
2023-01-17T13:12:17.209Z,97201.67
2023-01-17T13:17:45.176Z,97207.34
2023-01-17T13:22:51.208Z,97208.58
2023-01-17T13:28:03.460Z,97214.58
2023-01-17T13:33:28.282Z,97224.10
2023-01-17T13:38:43.165Z,97229.43
2023-01-17T13:44:06.536Z,97238.44
2023-01-17T13:49:34.831Z,97239.09
2023-01-17T13:54:45.104Z,97252.96
2023-01-17T13:59:48.739Z,97258.21
2023-01-17T14:05:12.416Z,97263.89
2023-01-17T14:10:31.181Z,97264.05
2023-01-17T14:15:47.500Z,97259.63
2023-01-17T14:21:03.605Z,97261.30
2023-01-17T14:26:32.014Z,97264.92
2023-01-17T14:31:35.638Z,97276.50
2023-01-17T14:36:39.551Z,97284.94
2023-01-17T14:41:43.784Z,97288.52
2023-01-17T14:46:49.193Z,97297.87
2023-01-17T14:52:03.995Z,97308.28
2023-01-17T14:57:25.770Z,97311.09
2023-01-17T15:02:29.518Z,97320.30
2023-01-17T15:07:33.412Z,97328.46
2023-01-17T15:12:39.025Z,97332.26
2023-01-17T15:17:42.395Z,97340.53
2023-01-17T15:22:46.216Z,97349.52
2023-01-17T15:27:49.933Z,97359.96
2023-01-17T15:32:53.549Z,97368.86
2023-01-17T15:37:58.516Z,97371.19
2023-01-17T15:43:02.322Z,97380.48
2023-01-17T15:48:37.067Z,97385.40
2023-01-17T15:53:42.761Z,97388.58
2023-01-17T15:58:51.076Z,97393.86
2023-01-17T16:03:55.616Z,97394.46
2023-01-17T16:08:59.123Z,97390.60
2023-01-17T16:14:02.735Z,97387.23
2023-01-17T16:19:06.770Z,97393.09
2023-01-17T16:24:11.312Z,97402.52
2023-01-17T16:29:14.822Z,97398.20
2023-01-17T16:34:18.338Z,97411.36
2023-01-17T16:39:21.849Z,97418.40
2023-01-17T16:44:25.367Z,97421.89
2023-01-17T16:49:32.708Z,97427.39
2023-01-17T16:54:36.085Z,97427.46
2023-01-17T16:59:50.113Z,97429.44
2023-01-17T17:04:53.890Z,97436.67
2023-01-17T17:09:57.382Z,97447.25
2023-01-17T17:15:00.796Z,97456.85
2023-01-17T17:20:06.171Z,97461.73
2023-01-17T17:25:10.960Z,97460.66
2023-01-17T17:30:15.042Z,97456.96
2023-01-17T17:35:18.439Z,97464.96
2023-01-17T17:40:22.232Z,97470.18
2023-01-17T17:45:25.884Z,97472.61
2023-01-17T17:50:29.305Z,97475.55
2023-01-17T17:55:33.218Z,97480.40
2023-01-17T18:00:36.631Z,97477.84
2023-01-17T18:05:41.786Z,97474.36
2023-01-17T18:10:46.434Z,97464.92
2023-01-17T18:15:49.797Z,97463.77
2023-01-17T18:20:53.573Z,97466.56
2023-01-17T18:25:57.075Z,97469.30
2023-01-17T18:31:06.782Z,97473.34
2023-01-17T18:36:12.709Z,97476.90
2023-01-17T18:41:21.962Z,97485.30
2023-01-17T18:46:27.286Z,97493.54
2023-01-17T18:51:32.806Z,97503.52
2023-01-17T18:56:36.320Z,97513.00
2023-01-17T19:01:43.932Z,97520.15
2023-01-17T19:06:48.554Z,97527.81
2023-01-17T19:11:52.069Z,97524.61
2023-01-17T19:16:57.539Z,97526.97
2023-01-17T19:22:00.939Z,97535.83
2023-01-17T19:27:07.316Z,97552.20
2023-01-17T19:32:11.962Z,97555.34
2023-01-17T19:37:15.270Z,97561.42
2023-01-17T19:42:19.404Z,97567.69
2023-01-17T19:47:22.812Z,97569.95
2023-01-17T19:52:26.645Z,97575.05
2023-01-17T19:57:37.217Z,97579.70
2023-01-17T20:02:40.886Z,97575.60
2023-01-17T20:07:44.769Z,97579.75
2023-01-17T20:12:48.277Z,97590.20
2023-01-17T20:17:51.693Z,97606.95
2023-01-17T20:22:55.726Z,97618.82
2023-01-17T20:27:59.427Z,97628.65
2023-01-17T20:33:03.482Z,97634.14
2023-01-17T20:38:07.903Z,97646.98
2023-01-17T20:43:12.355Z,97662.52
2023-01-17T20:48:15.863Z,97679.19
2023-01-17T20:53:19.680Z,97690.48
2023-01-17T20:58:23.093Z,97692.66
2023-01-17T21:03:33.468Z,97696.71
2023-01-17T21:08:39.214Z,97709.80
2023-01-17T21:13:43.469Z,97719.58
2023-01-17T21:18:48.366Z,97721.62
2023-01-17T21:23:54.207Z,97719.48
2023-01-17T21:29:00.313Z,97716.91
2023-01-17T21:34:06.774Z,97720.70
2023-01-17T21:39:19.309Z,97736.13
2023-01-17T21:44:24.024Z,97734.91
2023-01-17T21:49:27.537Z,97734.97
2023-01-17T21:54:50.096Z,97727.36
2023-01-17T21:59:53.815Z,97720.08
2023-01-17T22:04:57.342Z,97728.69
2023-01-17T22:10:01.064Z,97739.14
2023-01-17T22:15:05.191Z,97743.55
2023-01-17T22:20:10.579Z,97752.48
2023-01-17T22:25:14.057Z,97751.85
2023-01-17T22:30:19.825Z,97754.23
2023-01-17T22:35:23.959Z,97758.39
2023-01-17T22:40:28.084Z,97762.84
2023-01-17T22:45:31.601Z,97759.06
2023-01-17T22:50:35.125Z,97756.24
2023-01-17T22:55:38.630Z,97761.83
2023-01-17T23:00:42.351Z,97763.60
2023-01-17T23:05:47.003Z,97771.14
2023-01-17T23:11:09.146Z,97770.45
2023-01-17T23:16:31.403Z,97768.10
2023-01-17T23:21:54.070Z,97769.68
2023-01-17T23:27:16.013Z,97768.95
2023-01-17T23:32:19.425Z,97761.67
2023-01-17T23:37:47.211Z,97769.00
2023-01-17T23:43:10.035Z,97769.55
2023-01-17T23:48:14.316Z,97771.80
2023-01-17T23:53:23.263Z,97773.30
2023-01-17T23:58:28.106Z,97768.07
